createdAt,value
2024-05-09T00:00:47.826Z,69.54
2024-05-09T00:03:36.060Z,69.75
2024-05-09T00:06:05.224Z,69.79
2024-05-09T00:08:33.641Z,69.80
2024-05-09T00:11:02.141Z,69.97
2024-05-09T00:13:30.533Z,69.87
2024-05-09T00:15:59.428Z,69.93
2024-05-09T00:18:27.555Z,70.05
2024-05-09T00:20:55.759Z,69.96
2024-05-09T00:23:23.991Z,70.06
2024-05-09T00:25:52.145Z,70.24
2024-05-09T00:28:20.102Z,70.31
2024-05-09T00:30:48.019Z,70.41
2024-05-09T00:33:16.402Z,70.51
2024-05-09T00:35:44.911Z,70.54
2024-05-09T00:38:13.138Z,70.66
2024-05-09T00:40:43.152Z,70.72
2024-05-09T00:43:14.042Z,70.75
2024-05-09T00:45:44.096Z,70.93
2024-05-09T00:48:17.533Z,70.92
2024-05-09T00:50:48.480Z,70.84
2024-05-09T00:53:18.391Z,71.04
2024-05-09T00:55:47.632Z,71.22
2024-05-09T00:58:21.219Z,71.13
2024-05-09T01:00:51.000Z,71.21
2024-05-09T01:03:20.384Z,71.26
2024-05-09T01:05:48.772Z,71.32
2024-05-09T01:08:18.237Z,71.33
2024-05-09T01:10:48.525Z,71.33
2024-05-09T01:13:17.143Z,71.36
2024-05-09T01:15:47.946Z,71.38
2024-05-09T01:18:16.609Z,71.40
2024-05-09T01:20:45.634Z,71.41
2024-05-09T01:23:15.861Z,71.55
2024-05-09T01:25:46.433Z,71.63
2024-05-09T01:28:16.220Z,71.59
2024-05-09T01:30:44.504Z,71.64
2024-05-09T01:33:13.419Z,71.72
2024-05-09T01:35:42.882Z,71.73
2024-05-09T01:38:17.497Z,71.77
2024-05-09T01:40:47.110Z,71.90
2024-05-09T01:43:15.973Z,72.07
2024-05-09T01:45:44.057Z,72.11
2024-05-09T01:48:12.998Z,71.91
2024-05-09T01:50:43.057Z,71.83
2024-05-09T01:53:14.082Z,71.96
2024-05-09T01:55:44.066Z,72.06
2024-05-09T01:58:12.979Z,71.87
2024-05-09T02:00:43.028Z,72.00
2024-05-09T02:03:15.660Z,72.04
2024-05-09T02:05:48.007Z,71.86
2024-05-09T02:08:18.935Z,71.82
2024-05-09T02:10:49.170Z,71.71
2024-05-09T02:13:17.813Z,71.64
2024-05-09T02:15:46.007Z,71.56
2024-05-09T02:18:14.521Z,71.62
2024-05-09T02:20:43.438Z,71.68
2024-05-09T02:23:13.922Z,71.41
2024-05-09T02:25:42.088Z,71.46
2024-05-09T02:28:10.189Z,71.38
2024-05-09T02:30:41.103Z,71.41
2024-05-09T02:33:12.289Z,71.63
2024-05-09T02:35:43.691Z,71.61
2024-05-09T02:38:12.955Z,71.55
2024-05-09T02:40:41.558Z,71.32
2024-05-09T02:43:12.918Z,71.20
2024-05-09T02:45:41.653Z,71.26
2024-05-09T02:48:13.871Z,71.17
2024-05-09T02:50:44.360Z,71.20
2024-05-09T02:53:13.668Z,71.12
2024-05-09T02:55:43.047Z,70.95
2024-05-09T02:58:11.742Z,70.52
2024-05-09T03:00:42.278Z,70.60
2024-05-09T03:03:14.108Z,70.87
2024-05-09T03:05:45.385Z,70.85
2024-05-09T03:08:14.076Z,70.75
2024-05-09T03:10:42.831Z,70.22
2024-05-09T03:13:14.395Z,70.17
2024-05-09T03:15:45.017Z,70.06
2024-05-09T03:18:14.072Z,69.77
2024-05-09T03:20:44.451Z,69.37
2024-05-09T03:23:12.976Z,69.30
2024-05-09T03:25:41.016Z,69.14
2024-05-09T03:28:08.997Z,68.69
2024-05-09T03:30:41.812Z,68.71
2024-05-09T03:33:13.963Z,68.86
2024-05-09T03:35:44.106Z,69.07
2024-05-09T03:38:12.541Z,68.35
2024-05-09T03:40:48.217Z,68.01
2024-05-09T03:43:17.471Z,67.85
2024-05-09T03:45:48.750Z,67.94
2024-05-09T03:48:17.349Z,67.83
2024-05-09T03:50:45.696Z,67.93
2024-05-09T03:53:14.891Z,67.62
2024-05-09T03:55:42.895Z,67.71
2024-05-09T03:58:12.971Z,67.22
2024-05-09T04:00:42.310Z,67.10
2024-05-09T04:03:12.277Z,67.00
2024-05-09T04:05:42.800Z,66.72
2024-05-09T04:08:15.242Z,66.31
2024-05-09T04:10:44.061Z,66.27
2024-05-09T04:13:12.783Z,66.65
2024-05-09T04:15:40.871Z,66.64
2024-05-09T04:18:09.375Z,66.53
2024-05-09T04:20:40.354Z,66.52
2024-05-09T04:23:14.599Z,66.66
2024-05-09T04:25:45.379Z,66.40
2024-05-09T04:28:14.560Z,66.37
2024-05-09T04:30:43.259Z,66.34
2024-05-09T04:33:13.769Z,66.39
2024-05-09T04:35:43.505Z,66.30
2024-05-09T04:38:13.788Z,66.19
2024-05-09T04:40:42.837Z,66.24
2024-05-09T04:43:16.157Z,65.73
2024-05-09T04:45:44.853Z,65.87
2024-05-09T04:48:13.670Z,66.00
2024-05-09T04:50:42.247Z,65.34
2024-05-09T04:53:15.038Z,64.98
2024-05-09T04:55:43.404Z,64.13
2024-05-09T04:58:12.005Z,63.67
2024-05-09T05:00:41.430Z,63.21
2024-05-09T05:03:13.965Z,62.64
2024-05-09T05:05:46.556Z,62.31
2024-05-09T05:08:17.232Z,62.61
2024-05-09T05:10:48.120Z,62.83
2024-05-09T05:13:21.662Z,61.94
2024-05-09T05:15:55.910Z,61.20
2024-05-09T05:18:25.603Z,60.48
2024-05-09T05:20:55.549Z,60.93
2024-05-09T05:23:24.563Z,61.55
2024-05-09T05:25:55.679Z,61.97
2024-05-09T05:28:24.124Z,62.72
2024-05-09T05:30:52.241Z,63.49
2024-05-09T05:33:22.572Z,63.94
2024-05-09T05:35:51.293Z,64.73
2024-05-09T05:38:21.952Z,65.13
2024-05-09T05:40:52.016Z,65.62
2024-05-09T05:43:20.632Z,65.35
2024-05-09T05:45:48.657Z,64.55
2024-05-09T05:48:17.827Z,64.05
2024-05-09T05:50:46.737Z,63.78
2024-05-09T05:53:14.970Z,62.93
2024-05-09T05:55:43.079Z,62.95
2024-05-09T05:58:12.179Z,62.45
2024-05-09T06:00:42.001Z,62.22
2024-05-09T06:03:13.290Z,62.33
2024-05-09T06:05:46.711Z,62.50
2024-05-09T06:08:15.202Z,62.67
2024-05-09T06:10:43.384Z,62.30
2024-05-09T06:13:13.133Z,62.29
2024-05-09T06:15:42.809Z,63.12
2024-05-09T06:18:12.627Z,63.37
2024-05-09T06:20:42.844Z,63.62
2024-05-09T06:23:12.918Z,63.94
2024-05-09T06:25:42.190Z,63.94
2024-05-09T06:28:11.276Z,63.46
2024-05-09T06:30:42.011Z,62.38
2024-05-09T06:33:14.431Z,62.33
2024-05-09T06:35:46.042Z,62.06
2024-05-09T06:38:14.810Z,62.22
2024-05-09T06:40:44.127Z,61.75
2024-05-09T06:43:18.705Z,62.33
2024-05-09T06:45:49.549Z,62.86
2024-05-09T06:48:19.735Z,62.84
2024-05-09T06:50:49.272Z,62.77
2024-05-09T06:53:20.554Z,62.93
2024-05-09T06:55:48.838Z,63.57
2024-05-09T06:58:16.859Z,63.76
2024-05-09T07:00:45.195Z,63.87
2024-05-09T07:03:16.878Z,63.96
2024-05-09T07:05:48.707Z,64.27
2024-05-09T07:08:18.451Z,65.06
2024-05-09T07:10:47.009Z,65.85
2024-05-09T07:13:15.674Z,66.20
2024-05-09T07:15:44.442Z,65.95
2024-05-09T07:18:18.044Z,65.81
2024-05-09T07:20:48.557Z,65.80
2024-05-09T07:23:18.076Z,65.84
2024-05-09T07:25:46.379Z,65.66
2024-05-09T07:28:20.431Z,65.71
2024-05-09T07:30:48.588Z,65.66
2024-05-09T07:33:22.541Z,65.25
2024-05-09T07:35:52.445Z,65.35
2024-05-09T07:38:20.973Z,64.66
2024-05-09T07:40:49.442Z,65.09
2024-05-09T07:43:17.895Z,65.05
2024-05-09T07:45:52.557Z,64.49
2024-05-09T07:52:38.946Z,64.00
2024-05-09T07:53:48.341Z,63.98
2024-05-09T07:56:22.503Z,64.52
2024-05-09T07:58:53.824Z,64.11
2024-05-09T08:01:22.347Z,64.14
2024-05-09T08:03:50.852Z,64.24
2024-05-09T08:06:19.112Z,63.78
2024-05-09T08:08:47.953Z,63.21
2024-05-09T08:11:16.097Z,61.85
2024-05-09T08:13:44.202Z,61.04
2024-05-09T08:16:14.492Z,60.98
2024-05-09T08:18:42.743Z,60.23
2024-05-09T08:21:11.177Z,60.01
2024-05-09T08:23:39.353Z,60.12
2024-05-09T08:26:07.401Z,59.91
2024-05-09T08:28:35.594Z,60.24
2024-05-09T08:31:06.876Z,59.75
2024-05-09T08:33:35.782Z,59.23
2024-05-09T08:36:04.387Z,59.35
2024-05-09T08:38:32.699Z,59.12
2024-05-09T08:41:03.884Z,58.93
2024-05-09T08:43:31.757Z,59.19
2024-05-09T08:46:00.370Z,58.91
2024-05-09T08:48:31.148Z,58.83
2024-05-09T08:51:01.453Z,59.12
2024-05-09T08:53:29.517Z,59.38
2024-05-09T08:56:01.893Z,59.38
2024-05-09T08:58:33.358Z,59.58
2024-05-09T09:01:04.186Z,59.71
2024-05-09T09:03:34.103Z,60.39
2024-05-09T09:06:06.552Z,60.30
2024-05-09T09:08:36.015Z,60.72
2024-05-09T09:11:05.206Z,60.67
2024-05-09T09:13:33.335Z,60.02
2024-05-09T09:16:02.532Z,59.55
2024-05-09T09:18:31.274Z,58.82
2024-05-09T09:20:59.709Z,58.70
2024-05-09T09:23:29.561Z,58.51
2024-05-09T09:26:01.185Z,57.46
2024-05-09T09:28:29.736Z,57.71
2024-05-09T09:31:05.376Z,57.76
2024-05-09T09:33:35.589Z,56.97
2024-05-09T09:36:04.988Z,57.06
2024-05-09T09:38:36.880Z,57.01
2024-05-09T09:41:08.022Z,56.93
2024-05-09T09:43:37.060Z,56.30
2024-05-09T09:46:09.541Z,55.54
2024-05-09T09:48:41.500Z,55.13
2024-05-09T09:51:10.503Z,54.83
2024-05-09T09:53:39.844Z,55.23
2024-05-09T09:56:10.138Z,55.72
2024-05-09T09:58:40.603Z,55.60
2024-05-09T10:01:08.836Z,55.23
2024-05-09T10:03:37.129Z,55.07
2024-05-09T10:06:07.634Z,54.95
2024-05-09T10:08:36.601Z,55.02
2024-05-09T10:11:04.978Z,55.05
2024-05-09T10:13:34.736Z,55.04
2024-05-09T10:16:09.251Z,55.09
2024-05-09T10:18:39.068Z,56.36
2024-05-09T10:21:20.115Z,57.77
2024-05-09T10:24:03.462Z,58.65
2024-05-09T10:26:32.828Z,59.62
2024-05-09T10:29:10.262Z,60.20
2024-05-09T10:31:41.325Z,60.21
2024-05-09T10:34:33.565Z,59.88
2024-05-09T10:37:04.199Z,60.05
2024-05-09T10:39:37.084Z,60.26
2024-05-09T10:42:10.172Z,60.47
2024-05-09T10:44:38.466Z,60.65
2024-05-09T10:47:06.701Z,60.90
2024-05-09T10:49:35.451Z,61.88
2024-05-09T10:52:04.169Z,63.14
2024-05-09T10:54:36.715Z,63.74
2024-05-09T10:57:05.782Z,63.61
2024-05-09T10:59:35.755Z,63.90
2024-05-09T11:02:04.917Z,64.80
2024-05-09T11:04:34.509Z,65.94
2024-05-09T11:07:08.801Z,64.85
2024-05-09T11:09:38.756Z,64.87
2024-05-09T11:12:08.485Z,64.61
2024-05-09T11:14:36.816Z,65.27
2024-05-09T11:17:06.966Z,65.10
2024-05-09T11:19:40.318Z,64.72
2024-05-09T11:22:08.585Z,64.52
2024-05-09T11:24:37.339Z,64.04
2024-05-09T11:27:06.107Z,63.18
2024-05-09T11:29:41.763Z,63.90
2024-05-09T11:32:16.598Z,64.38
2024-05-09T11:34:44.705Z,65.15
2024-05-09T11:37:13.734Z,64.75
2024-05-09T11:39:41.732Z,66.15
2024-05-09T11:42:09.735Z,67.39
2024-05-09T11:44:37.837Z,69.38
2024-05-09T11:47:05.807Z,69.46
2024-05-09T11:49:34.006Z,66.90
2024-05-09T11:52:02.214Z,66.79
2024-05-09T11:54:30.267Z,66.71
2024-05-09T11:56:58.293Z,66.91
2024-05-09T11:59:26.383Z,68.20
2024-05-09T12:01:54.572Z,68.50
2024-05-09T12:04:22.810Z,69.11
2024-05-09T12:06:51.033Z,69.86
2024-05-09T12:09:19.124Z,68.91
2024-05-09T12:11:47.477Z,69.86
2024-05-09T12:14:15.351Z,69.83
2024-05-09T12:16:43.397Z,68.16
2024-05-09T12:19:11.598Z,68.47
2024-05-09T12:21:39.848Z,68.88
2024-05-09T12:24:07.819Z,69.39
2024-05-09T12:26:35.715Z,70.14
2024-05-09T12:29:03.834Z,68.55
2024-05-09T12:31:31.772Z,69.00
2024-05-09T12:34:00.425Z,69.62
2024-05-09T12:36:30.545Z,69.00
2024-05-09T12:38:58.483Z,68.50
2024-05-09T12:41:26.544Z,68.87
2024-05-09T12:43:54.608Z,67.35
2024-05-09T12:46:23.239Z,67.08
2024-05-09T12:48:51.826Z,66.89
2024-05-09T12:51:20.149Z,66.63
2024-05-09T12:53:48.130Z,66.87
2024-05-09T12:56:16.201Z,66.06
2024-05-09T12:58:44.578Z,65.97
2024-05-09T13:01:12.620Z,67.17
2024-05-09T13:03:40.763Z,66.41
2024-05-09T13:06:09.036Z,66.80
2024-05-09T13:08:37.199Z,66.74
2024-05-09T13:11:05.545Z,68.42
2024-05-09T13:13:33.440Z,67.64
2024-05-09T13:16:01.755Z,67.41
2024-05-09T13:18:29.880Z,67.88
2024-05-09T13:20:58.252Z,67.35
2024-05-09T13:23:26.459Z,67.92
2024-05-09T13:25:54.796Z,68.71
2024-05-09T13:28:23.066Z,68.78
2024-05-09T13:30:51.299Z,67.36
2024-05-09T13:33:19.386Z,66.72
2024-05-09T13:35:50.422Z,67.50
2024-05-09T13:38:20.863Z,67.94
2024-05-09T13:40:50.431Z,68.22
2024-05-09T13:43:19.976Z,67.53
2024-05-09T13:45:48.312Z,67.49
2024-05-09T13:48:16.667Z,67.73
2024-05-09T13:50:45.747Z,68.42
2024-05-09T13:53:13.715Z,69.33
2024-05-09T13:55:41.860Z,70.12
2024-05-09T13:58:10.274Z,69.27
2024-05-09T14:00:46.161Z,68.99
2024-05-09T14:03:19.842Z,69.74
2024-05-09T14:05:50.945Z,68.90
2024-05-09T14:08:21.743Z,67.01
2024-05-09T14:10:50.836Z,65.40
2024-05-09T14:13:19.764Z,66.48
2024-05-09T14:15:48.563Z,66.76
2024-05-09T14:18:18.147Z,63.84
2024-05-09T14:20:46.222Z,61.28
2024-05-09T14:23:14.979Z,60.72
2024-05-09T14:25:45.015Z,60.63
2024-05-09T14:28:13.965Z,62.73
2024-05-09T14:30:42.978Z,63.40
2024-05-09T14:33:11.973Z,61.00
2024-05-09T14:35:40.336Z,61.89
2024-05-09T14:38:09.734Z,63.37
2024-05-09T14:40:42.454Z,63.00
2024-05-09T14:43:14.594Z,63.94
2024-05-09T14:45:44.328Z,64.68
2024-05-09T14:48:16.193Z,64.63
2024-05-09T14:50:44.413Z,64.23
2024-05-09T14:53:13.729Z,64.02
2024-05-09T14:55:43.777Z,64.68
2024-05-09T14:58:13.003Z,66.46
2024-05-09T15:00:46.556Z,64.99
2024-05-09T15:03:20.077Z,65.41
2024-05-09T15:05:49.320Z,66.49
2024-05-09T15:08:18.693Z,65.51
2024-05-09T15:10:49.590Z,64.66
2024-05-09T15:13:20.031Z,65.62
2024-05-09T15:15:48.835Z,65.70
2024-05-09T15:18:18.074Z,64.28
2024-05-09T15:20:46.907Z,65.28
2024-05-09T15:23:15.034Z,65.56
2024-05-09T15:25:44.504Z,64.60
2024-05-09T15:28:12.711Z,64.47
2024-05-09T15:30:45.379Z,63.67
2024-05-09T15:33:15.015Z,64.15
2024-05-09T15:35:43.352Z,65.18
2024-05-09T15:38:12.474Z,63.51
2024-05-09T15:40:41.177Z,63.54
2024-05-09T15:43:11.590Z,63.93
2024-05-09T15:45:41.382Z,62.23
2024-05-09T15:48:10.653Z,62.53
2024-05-09T15:50:41.724Z,61.68
2024-05-09T15:53:13.375Z,62.57
2024-05-09T15:55:43.169Z,62.86
2024-05-09T15:58:12.416Z,61.39
2024-05-09T16:00:43.707Z,62.78
2024-05-09T16:03:14.677Z,62.79
2024-05-09T16:05:45.002Z,62.35
2024-05-09T16:08:14.846Z,66.78
2024-05-09T16:10:45.860Z,69.62
2024-05-09T16:13:16.293Z,70.65
2024-05-09T16:15:45.380Z,71.53
2024-05-09T16:18:13.846Z,72.01
2024-05-09T16:20:44.156Z,72.50
2024-05-09T16:23:13.741Z,72.71
2024-05-09T16:25:45.349Z,72.75
2024-05-09T16:28:13.723Z,72.90
2024-05-09T16:30:42.229Z,73.12
2024-05-09T16:33:13.596Z,73.48
2024-05-09T16:35:41.871Z,73.58
2024-05-09T16:38:10.332Z,73.56
2024-05-09T16:40:40.747Z,73.58
2024-05-09T16:43:12.338Z,74.08
2024-05-09T16:45:45.167Z,74.10
2024-05-09T16:48:14.160Z,74.11
2024-05-09T16:50:43.306Z,74.53
2024-05-09T16:53:11.335Z,74.51
2024-05-09T16:55:39.419Z,74.55
2024-05-09T16:58:08.233Z,74.77
2024-05-09T17:00:41.598Z,75.00
2024-05-09T17:03:16.563Z,75.07
2024-05-09T17:05:46.786Z,75.19
2024-05-09T17:08:18.466Z,75.44
2024-05-09T17:10:50.507Z,75.37
2024-05-09T17:13:19.219Z,75.07
2024-05-09T17:15:51.970Z,75.33
2024-05-09T17:18:20.905Z,75.62
2024-05-09T17:20:51.232Z,75.76
2024-05-09T17:23:19.184Z,75.80
2024-05-09T17:25:47.443Z,75.93
2024-05-09T17:28:15.759Z,76.04
2024-05-09T17:30:44.097Z,76.10
2024-05-09T17:33:13.116Z,76.20
2024-05-09T17:35:41.817Z,76.35
2024-05-09T17:38:09.962Z,76.52
2024-05-09T17:40:38.995Z,76.35
2024-05-09T17:43:10.435Z,76.23
2024-05-09T17:45:40.790Z,76.29
2024-05-09T17:48:11.644Z,76.23
2024-05-09T17:50:41.924Z,76.29
2024-05-09T17:53:10.986Z,76.45
2024-05-09T17:55:40.530Z,76.33
2024-05-09T17:58:09.890Z,76.63
2024-05-09T18:00:41.050Z,76.52
2024-05-09T18:03:12.068Z,74.60
2024-05-09T18:05:43.345Z,74.13
2024-05-09T18:08:14.005Z,74.30
2024-05-09T18:10:42.931Z,74.29
2024-05-09T18:13:12.287Z,74.69
2024-05-09T18:15:41.480Z,74.99
2024-05-09T18:18:10.660Z,74.50
2024-05-09T18:20:43.940Z,75.15
2024-05-09T18:23:16.252Z,74.53
2024-05-09T18:25:46.096Z,74.72
2024-05-09T18:28:15.035Z,75.03
2024-05-09T18:30:43.118Z,74.74
2024-05-09T18:33:11.993Z,74.67
2024-05-09T18:35:44.669Z,74.47
2024-05-09T18:38:12.903Z,74.23
2024-05-09T18:40:43.564Z,74.74
2024-05-09T18:43:13.517Z,74.18
2024-05-09T18:45:41.465Z,74.35
2024-05-09T18:48:10.205Z,74.51
2024-05-09T18:50:40.763Z,74.62
2024-05-09T18:53:12.077Z,74.82
2024-05-09T18:55:42.036Z,74.61
2024-05-09T18:58:10.475Z,74.02
2024-05-09T19:00:41.425Z,74.24
2024-05-09T19:03:13.834Z,74.09
2024-05-09T19:05:45.024Z,74.26
2024-05-09T19:08:15.243Z,74.24
2024-05-09T19:10:45.356Z,74.35
2024-05-09T19:13:14.607Z,74.09
2024-05-09T19:15:43.869Z,73.60
2024-05-09T19:18:14.192Z,73.44
2024-05-09T19:20:43.664Z,73.82
2024-05-09T19:23:12.179Z,73.81
2024-05-09T19:25:40.734Z,74.23
2024-05-09T19:28:10.398Z,74.93
2024-05-09T19:30:41.739Z,74.87
2024-05-09T19:33:13.201Z,74.68
2024-05-09T19:35:43.062Z,75.46
2024-05-09T19:38:12.226Z,75.64
2024-05-09T19:40:40.732Z,75.27
2024-05-09T19:43:09.299Z,75.26
2024-05-09T19:45:37.778Z,75.21
2024-05-09T19:48:06.886Z,75.08
2024-05-09T19:50:41.946Z,75.53
2024-05-09T19:53:14.316Z,75.23
2024-05-09T19:55:43.337Z,75.56
2024-05-09T19:58:12.872Z,75.66
2024-05-09T20:00:43.657Z,75.61
2024-05-09T20:03:14.834Z,75.83
2024-05-09T20:05:46.408Z,76.14
2024-05-09T20:08:15.087Z,76.31
2024-05-09T20:10:43.481Z,76.69
2024-05-09T20:13:11.546Z,76.89
2024-05-09T20:15:39.906Z,76.57
2024-05-09T20:18:08.323Z,76.55
2024-05-09T20:20:40.358Z,76.64
2024-05-09T20:23:12.299Z,77.14
2024-05-09T20:25:41.546Z,77.56
2024-05-09T20:28:10.377Z,77.48
2024-05-09T20:30:38.973Z,77.47
2024-05-09T20:33:08.847Z,77.26
2024-05-09T20:35:38.247Z,77.62
2024-05-09T20:38:06.310Z,77.32
2024-05-09T20:40:37.732Z,77.26
2024-05-09T20:43:09.152Z,77.39
2024-05-09T20:45:37.674Z,77.11
2024-05-09T20:48:06.672Z,76.77
2024-05-09T20:50:39.420Z,75.99
2024-05-09T20:53:11.738Z,75.04
2024-05-09T20:55:40.468Z,74.22
2024-05-09T20:58:10.091Z,73.77
2024-05-09T21:00:42.484Z,73.99
2024-05-09T21:03:15.815Z,73.88
2024-05-09T21:05:45.902Z,73.67
2024-05-09T21:08:14.293Z,72.98
2024-05-09T21:10:42.499Z,72.55
2024-05-09T21:13:11.545Z,72.72
2024-05-09T21:15:39.703Z,72.20
2024-05-09T21:18:08.080Z,72.15
2024-05-09T21:20:37.445Z,71.66
2024-05-09T21:23:05.863Z,71.35
2024-05-09T21:25:33.935Z,71.29
2024-05-09T21:28:02.942Z,70.88
2024-05-09T21:30:38.861Z,71.13
2024-05-09T21:33:13.431Z,71.05
2024-05-09T21:35:44.298Z,70.72
2024-05-09T21:38:14.473Z,70.55
2024-05-09T21:40:43.951Z,69.84
2024-05-09T21:43:12.694Z,69.16
2024-05-09T21:45:41.092Z,67.76
2024-05-09T21:48:09.467Z,68.28
2024-05-09T21:50:41.128Z,68.10
2024-05-09T21:53:12.589Z,68.03
2024-05-09T21:55:44.853Z,67.41
2024-05-09T21:58:16.220Z,67.00
2024-05-09T22:00:46.364Z,66.89
2024-05-09T22:03:15.115Z,67.04
2024-05-09T22:05:44.963Z,67.11
2024-05-09T22:08:13.606Z,67.22
2024-05-09T22:10:42.387Z,66.88
2024-05-09T22:13:10.810Z,66.41
2024-05-09T22:15:40.421Z,66.74
2024-05-09T22:18:10.992Z,67.53
2024-05-09T22:20:45.379Z,67.10
2024-05-09T22:23:15.718Z,66.74
2024-05-09T22:25:44.339Z,66.58
2024-05-09T22:28:16.322Z,66.17
2024-05-09T22:30:46.246Z,65.76
2024-05-09T22:33:15.270Z,65.95
2024-05-09T22:35:43.443Z,65.58
2024-05-09T22:38:11.714Z,64.92
2024-05-09T22:40:47.308Z,63.57
2024-05-09T22:43:20.796Z,62.56
2024-05-09T22:45:50.728Z,61.18
2024-05-09T22:48:19.604Z,60.28
2024-05-09T22:50:47.753Z,59.17
2024-05-09T22:53:15.841Z,58.40
2024-05-09T22:55:44.094Z,57.99
2024-05-09T22:58:12.418Z,57.29
2024-05-09T23:00:40.542Z,57.24
2024-05-09T23:03:09.075Z,57.15
2024-05-09T23:05:37.366Z,56.62
2024-05-09T23:08:06.288Z,55.95
2024-05-09T23:10:37.698Z,55.12
2024-05-09T23:13:07.974Z,55.86
2024-05-09T23:15:38.454Z,55.40
2024-05-09T23:18:07.691Z,55.50
2024-05-09T23:20:39.032Z,55.57
2024-05-09T23:23:10.857Z,56.55
2024-05-09T23:25:43.665Z,56.45
2024-05-09T23:28:12.692Z,55.46
2024-05-09T23:30:42.135Z,56.12
2024-05-09T23:33:12.668Z,55.91
2024-05-09T23:35:42.343Z,56.42
2024-05-09T23:38:10.694Z,56.79
2024-05-09T23:40:40.890Z,57.16
2024-05-09T23:43:11.650Z,56.98
2024-05-09T23:45:41.452Z,56.34
2024-05-09T23:48:10.267Z,56.51
2024-05-09T23:50:40.132Z,56.93
2024-05-09T23:53:09.866Z,57.93
2024-05-09T23:55:39.089Z,58.47
2024-05-09T23:58:08.198Z,58.89
